^^
Datos históricos de la estación: Murcia-Puente Tocinos
Diario Informe para Noviembre 6, 2019 Unidades:  Ingés    Métrico   Ambas
Diario Semanal Mensual Anual
  Máxima: Mínima: Promedio:
Temperatura: 69.1 °F 55.8 °F 61.9 °F
Punto de rocio: 42.3 °F 37.9 °F 40.6 °F
Humedad: 60% 32.1% 46%
Velocidad viento: 14mph 1.4mph 6.1mph
Racha viento: 25.3mph - -
Viento- - OSO
Presión: 30 in 29.9 in -
Precipitación: 0 in    
 
 
Tabla de datos para Noviembre 6, 2019
Hora Temperatura Punto de rocio Presión Viento Velocidad viento Racha viento Humedad Intensidad lluvia(por hora) Nubes
00:04 57.9 °F 41.4 °F 29.9 in Sur 5.2 mph 8.1 mph 54% 0 in
00:09 57.7 °F 41.2 °F 29.9 in Sur 5.4 mph 8 mph 54% 0 in
00:14 57.9 °F 41.4 °F 29.9 in Sur 5.2 mph 9.2 mph 54% 0 in
00:19 58.1 °F 41.5 °F 29.9 in Sur 5.2 mph 6.2 mph 54% 0 in
00:24 58.3 °F 41.4 °F 29.9 in SSO 4.5 mph 6.9 mph 53.2% 0 in
00:29 58.5 °F 41.4 °F 29.9 in SSO 4.3 mph 7 mph 53% 0 in
00:34 58.6 °F 41.5 °F 29.9 in SSO 4.3 mph 7 mph 53% 0 in
00:39 58.6 °F 41.5 °F 29.9 in SSO 4.3 mph 7 mph 53% 0 in
00:44 58.8 °F 41.2 °F 29.9 in SSO 4.3 mph 7 mph 52.1% 0 in
00:49 58.8 °F 41.4 °F 29.9 in SO 4.3 mph 7 mph 52% 0 in
00:54 58.8 °F 41.2 °F 29.9 in OSO 3.7 mph 6 mph 52% 0 in
00:59 58.6 °F 41.2 °F 29.9 in SO 3.6 mph 6.2 mph 52.1% 0 in
01:04 58.6 °F 41.2 °F 29.9 in OSO 3.9 mph 7.4 mph 52% 0 in
01:09 58.6 °F 41.2 °F 29.9 in OSO 4 mph 8.5 mph 52% 0 in
01:14 58.6 °F 41.2 °F 29.9 in SO 5 mph 9 mph 52% 0 in
01:19 58.8 °F 41 °F 29.9 in SO 5.2 mph 9 mph 51.5% 0 in
01:24 59.4 °F 41 °F 29.9 in OSO 5.3 mph 8.5 mph 50.7% 0 in
01:29 59.5 °F 41 °F 29.9 in OSO 5.4 mph 9 mph 50% 0 in
01:34 59.9 °F 40.8 °F 29.9 in OSO 4.8 mph 8.5 mph 49.2% 0 in
01:39 60.1 °F 41 °F 29.9 in Oeste 4.7 mph 9 mph 49.4% 0 in
01:44 59.5 °F 41 °F 29.9 in OSO 4.4 mph 7 mph 50.5% 0 in
01:49 58.8 °F 41.2 °F 29.9 in OSO 4.3 mph 7 mph 51.7% 0 in
01:54 58.8 °F 41.2 °F 29.9 in SO 4 mph 7 mph 52% 0 in
01:59 58.8 °F 41 °F 29.9 in OSO 4 mph 6.2 mph 51.4% 0 in
02:04 59.2 °F 41.4 °F 29.9 in ONO 3.3 mph 6 mph 51.8% 0 in
02:09 58.6 °F 41.5 °F 29.9 in Oeste 3.1 mph 5 mph 52.8% 0 in
02:14 58.1 °F 41.4 °F 29.9 in OSO 2.5 mph 6.9 mph 53.5% 0 in
02:19 57.9 °F 41.4 °F 29.9 in OSO 2.4 mph 9.7 mph 54% 0 in
02:24 58.1 °F 41 °F 29.9 in OSO 4.7 mph 10 mph 53.2% 0 in
02:29 57.9 °F 41.4 °F 29.9 in OSO 5.4 mph 10.4 mph 53.9% 0 in
02:34 57.7 °F 41.2 °F 29.9 in OSO 6 mph 10 mph 54% 0 in
02:39 57.7 °F 41.2 °F 29.9 in SO 6.2 mph 10.4 mph 54% 0 in
02:44 57.9 °F 41.4 °F 29.9 in OSO 6 mph 10 mph 54% 0 in
02:49 57.9 °F 41.4 °F 29.9 in OSO 5.9 mph 9.2 mph 54% 0 in
02:54 57.9 °F 41.4 °F 29.9 in OSO 5.5 mph 9 mph 54% 0 in
02:59 57.7 °F 41.5 °F 29.9 in OSO 5.4 mph 9 mph 54.4% 0 in
03:04 57.7 °F 41.7 °F 29.9 in OSO 5.4 mph 9.2 mph 55% 0 in
03:09 57.9 °F 41.7 °F 29.9 in OSO 5.4 mph 9.2 mph 55% 0 in
03:14 58.1 °F 41.7 °F 29.9 in SO 6 mph 10.4 mph 54.6% 0 in
03:19 58.3 °F 41.7 °F 29.9 in SO 6.2 mph 10.4 mph 54% 0 in
03:24 58.5 °F 41.9 °F 29.9 in SO 5.4 mph 9 mph 54% 0 in
03:29 58.5 °F 41.9 °F 29.9 in NNO 5.2 mph 8 mph 54% 0 in
03:34 58.1 °F 41.9 °F 29.9 in NNE 2.9 mph 6.9 mph 54.7% 0 in
03:39 57.2 °F 41.9 °F 29.9 in NE 2.4 mph 7 mph 56.5% 0 in
03:44 56.7 °F 41.9 °F 29.9 in NE 2.8 mph 5 mph 57.8% 0 in
03:49 56.1 °F 42.1 °F 29.9 in ENE 2.9 mph 4.6 mph 58.9% 0 in
03:54 55.9 °F 42.3 °F 29.9 in Este 2.2 mph 5 mph 60% 0 in
03:59 55.8 °F 42.1 °F 29.9 in Este 2 mph 3.1 mph 59.9% 0 in
04:04 55.9 °F 41.9 °F 29.9 in Sur 1.5 mph 5.4 mph 59% 0 in
04:09 56.7 °F 42.1 °F 29.9 in SSO 1.4 mph 6 mph 58.2% 0 in
04:14 56.8 °F 42.1 °F 29.9 in SO 2.6 mph 5.8 mph 57.5% 0 in
04:19 57.2 °F 42.1 °F 29.9 in SO 2.9 mph 6 mph 57% 0 in
04:24 57.4 °F 41.9 °F 29.9 in SO 3.5 mph 6 mph 56.1% 0 in
04:29 57.4 °F 41.9 °F 29.9 in OSO 3.6 mph 6.2 mph 56.3% 0 in
04:34 57.4 °F 42.3 °F 29.9 in OSO 3.9 mph 9.2 mph 56.9% 0 in
04:39 57.6 °F 42.3 °F 29.9 in SO 4 mph 9 mph 56.7% 0 in
04:44 57.6 °F 42.1 °F 29.9 in SO 3.7 mph 6 mph 56% 0 in
04:49 57.6 °F 42.1 °F 29.9 in SO 3.6 mph 5.8 mph 56% 0 in
04:54 57.9 °F 42.3 °F 29.9 in OSO 3.2 mph 6 mph 56% 0 in
04:59 57.9 °F 42.1 °F 29.9 in SO 3.1 mph 6 mph 55.2% 0 in
05:04 57.9 °F 41.7 °F 29.9 in SO 3.5 mph 6.2 mph 55% 0 in
05:09 58.1 °F 42.1 °F 29.9 in OSO 3.6 mph 6.9 mph 55% 0 in
05:14 58.3 °F 42.1 °F 29.9 in Oeste 3.9 mph 7 mph 55% 0 in
05:19 57.9 °F 41.9 °F 29.9 in Oeste 4 mph 5.2 mph 55% 0 in
05:24 57.7 °F 42.1 °F 29.9 in Oeste 3.7 mph 6.2 mph 56% 0 in
05:29 57.7 °F 42.1 °F 29.9 in Oeste 3.6 mph 6.9 mph 56% 0 in
05:34 57.6 °F 42.1 °F 29.9 in OSO 4.2 mph 8.1 mph 56.1% 0 in
05:39 57.4 °F 42.3 °F 29.9 in OSO 4.3 mph 8 mph 57% 0 in
05:44 57 °F 42.1 °F 29.9 in OSO 4.3 mph 9.2 mph 57.4% 0 in
05:49 57 °F 42.3 °F 29.9 in Oeste 4.3 mph 9 mph 57.9% 0 in
05:54 56.8 °F 42.1 °F 29.9 in Oeste 4.7 mph 8.1 mph 58% 0 in
05:59 56.7 °F 42.1 °F 29.9 in OSO 4.7 mph 11.5 mph 58% 0 in
06:04 56.7 °F 42.1 °F 29.9 in Oeste 5.3 mph 12 mph 58% 0 in
06:09 56.7 °F 42.3 °F 29.9 in Oeste 5.4 mph 9.2 mph 58.5% 0 in
06:14 56.5 °F 42.3 °F 29.9 in Oeste 4.5 mph 8 mph 59% 0 in
06:19 56.5 °F 42.3 °F 29.9 in Oeste 4.3 mph 5 mph 59% 0 in
06:24 56.5 °F 42.3 °F 29.9 in ONO 3.2 mph 5 mph 59% 0 in
06:29 56.3 °F 42.1 °F 29.9 in ONO 2.9 mph 5.2 mph 59% 0 in
06:34 56.5 °F 42.3 °F 29.9 in Oeste 2.2 mph 5.9 mph 59% 0 in
06:39 56.5 °F 42.3 °F 29.9 in Oeste 2 mph 6 mph 58.7% 0 in
06:44 56.7 °F 42.3 °F 29.9 in OSO 2.9 mph 6.2 mph 58.7% 0 in
06:49 56.7 °F 41.9 °F 29.9 in Oeste 3.1 mph 15.2 mph 57.8% 0 in
06:54 57.6 °F 41.5 °F 29.9 in Oeste 5.3 mph 15 mph 55.1% 0 in
06:59 57.9 °F 41.4 °F 29.9 in Oeste 5.9 mph 11.5 mph 54% 0 in
07:04 58.1 °F 41.5 °F 29.9 in OSO 5.5 mph 12 mph 54% 0 in
07:09 58.3 °F 41.4 °F 29.9 in Oeste 5.4 mph 11.8 mph 53.2% 0 in
07:14 58.5 °F 41.2 °F 29.9 in OSO 5.8 mph 12 mph 52.6% 0 in
07:19 58.5 °F 41.4 °F 29.9 in Sur 5.9 mph 6 mph 53.1% 0 in
07:24 58.3 °F 41.7 °F 29.9 in Sur 4.4 mph 6 mph 54% 0 in
07:29 58.1 °F 41.5 °F 29.9 in SO 4 mph 6 mph 54.2% 0 in
07:34 57.9 °F 41.4 °F 29.9 in OSO 3.7 mph 6 mph 54% 0 in
07:39 57.9 °F 41.7 °F 29.9 in OSO 3.6 mph 6 mph 54.9% 0 in
07:44 57.7 °F 41.5 °F 29.9 in OSO 3.6 mph 10.7 mph 54.8% 0 in
07:49 57.7 °F 41.4 °F 29.9 in OSO 3.6 mph 11 mph 54% 0 in
07:54 57.7 °F 41.2 °F 29.9 in OSO 4.5 mph 7 mph 54% 0 in
07:59 58.1 °F 41 °F 29.9 in SO 4.7 mph 10.4 mph 53.2% 0 in
08:04 58.6 °F 40.8 °F 29.9 in OSO 4.7 mph 11.5 mph 51.7% 0 in
08:09 58.8 °F 40.8 °F 29.9 in SO 4.7 mph 12 mph 51.1% 0 in
08:14 59.2 °F 40.8 °F 29.9 in Oeste 4.7 mph 9.2 mph 50.7% 0 in
08:19 59.4 °F 40.8 °F 29.9 in Oeste 4.7 mph 12.7 mph 50.1% 0 in
08:24 59.5 °F 40.8 °F 29.9 in ONO 5.7 mph 13 mph 50% 0 in
08:29 59.7 °F 41 °F 29.9 in ONO 5.9 mph 8 mph 50% 0 in
08:34 59.7 °F 41 °F 29.9 in Oeste 4.4 mph 8.1 mph 50% 0 in
08:39 59.9 °F 41.2 °F 29.9 in Oeste 4 mph 10.4 mph 49.9% 0 in
08:44 59.9 °F 41.4 °F 29.9 in Oeste 5.1 mph 10 mph 50% 0 in
08:49 60.1 °F 41.4 °F 29.9 in Oeste 5.4 mph 10 mph 50% 0 in
08:54 59.9 °F 41.4 °F 29.9 in Oeste 5.8 mph 10 mph 50% 0 in
08:59 60.1 °F 41.4 °F 29.9 in Oeste 5.9 mph 11.5 mph 50% 0 in
09:04 60.3 °F 41.4 °F 29.9 in OSO 6.2 mph 12 mph 50% 0 in
09:09 60.3 °F 41.5 °F 30 in OSO 6.2 mph 13 mph 49.9% 0 in
09:14 60.4 °F 41.5 °F 30 in OSO 6.3 mph 13 mph 49.7% 0 in
09:19 60.6 °F 41.4 °F 30 in OSO 6.4 mph 12.7 mph 49% 0 in
09:24 61.2 °F 41.5 °F 30 in OSO 6 mph 13.5 mph 48.6% 0 in
09:29 61.3 °F 41.2 °F 30 in OSO 5.9 mph 15.6 mph 47.6% 0 in
09:34 61.5 °F 41 °F 30 in Oeste 6.2 mph 16.1 mph 47% 0 in
09:39 61.5 °F 41.2 °F 30 in OSO 6.2 mph 16 mph 47% 0 in
09:44 61.7 °F 41.2 °F 30 in OSO 6.3 mph 14 mph 47% 0 in
09:49 61.9 °F 41.4 °F 30 in OSO 6.4 mph 14 mph 47% 0 in
09:54 61.7 °F 41.4 °F 30 in OSO 6.3 mph 14 mph 47% 0 in
09:59 61.9 °F 41.4 °F 30 in Oeste 6.2 mph 15.9 mph 46.9% 0 in
10:04 61.9 °F 41 °F 30 in Oeste 7.4 mph 17.3 mph 46% 0 in
10:09 62.1 °F 41 °F 30 in ONO 7.6 mph 18.4 mph 46% 0 in
10:14 62.1 °F 41 °F 30 in Oeste 10.1 mph 18.4 mph 45.9% 0 in
10:19 62.1 °F 41 °F 30 in Oeste 10.7 mph 18 mph 46% 0 in
10:24 62.2 °F 41.2 °F 30 in Oeste 9.5 mph 17 mph 46% 0 in
10:29 62.4 °F 41 °F 30 in Oeste 9.2 mph 16.1 mph 45.2% 0 in
10:34 62.8 °F 41 °F 30 in Oeste 8.6 mph 16 mph 45.1% 0 in
10:39 63 °F 41 °F 30 in ONO 8.5 mph 18.4 mph 44.6% 0 in
10:44 63 °F 41.2 °F 30 in ONO 8.5 mph 18 mph 44.7% 0 in
10:49 63.1 °F 40.8 °F 30 in Oeste 8.5 mph 19.7 mph 44% 0 in
10:54 63.1 °F 40.8 °F 30 in ONO 9 mph 20 mph 44% 0 in
10:59 63.1 °F 40.8 °F 30 in ONO 9.2 mph 18.5 mph 44% 0 in
11:04 63.1 °F 41 °F 30 in ONO 10.4 mph 19 mph 44% 0 in
11:09 63.3 °F 40.6 °F 30 in ONO 10.7 mph 23 mph 43.4% 0 in
11:14 63.3 °F 40.5 °F 30 in ONO 10.7 mph 23 mph 43.2% 0 in
11:19 63.3 °F 40.6 °F 30 in ONO 10.7 mph 22 mph 43.3% 0 in
11:24 63.7 °F 41 °F 30 in ONO 12.9 mph 20 mph 43.4% 0 in
11:29 63.9 °F 40.5 °F 30 in ONO 13.5 mph 25.3 mph 42.2% 0 in
11:34 63.9 °F 40.1 °F 30 in Oeste 13.9 mph 25 mph 42% 0 in
11:39 63.9 °F 40.5 °F 30 in Oeste 14 mph 25 mph 42.2% 0 in
11:44 64.2 °F 41 °F 29.9 in Oeste 12.6 mph 23 mph 42.5% 0 in
11:49 64.4 °F 41 °F 29.9 in ONO 12.3 mph 19 mph 42.3% 0 in
11:54 64.6 °F 41.2 °F 29.9 in Oeste 11.1 mph 19 mph 42.3% 0 in
11:59 64.8 °F 41.2 °F 29.9 in ONO 10.7 mph 18 mph 42% 0 in
12:04 64.9 °F 41.4 °F 29.9 in Oeste 9.4 mph 17 mph 42% 0 in
12:09 65.1 °F 41.4 °F 29.9 in Oeste 9.2 mph 16 mph 42% 0 in
12:14 65.1 °F 41.2 °F 29.9 in Oeste 8.3 mph 17.5 mph 41.4% 0 in
12:19 65.3 °F 41 °F 29.9 in ONO 8.1 mph 19.7 mph 41% 0 in
12:24 65.5 °F 41.2 °F 29.9 in Oeste 9.8 mph 20 mph 40.9% 0 in
12:29 65.8 °F 41 °F 29.9 in Oeste 10.2 mph 16.3 mph 40.3% 0 in
12:34 65.8 °F 41 °F 29.9 in Oeste 9.4 mph 17.5 mph 40.3% 0 in
12:39 66 °F 41.2 °F 29.9 in ONO 9.2 mph 21.9 mph 40.2% 0 in
12:44 65.8 °F 40.8 °F 29.9 in ONO 10.4 mph 22 mph 39.8% 0 in
12:49 65.7 °F 40.8 °F 29.9 in ONO 10.7 mph 20.1 mph 40% 0 in
12:54 66 °F 41 °F 29.9 in ONO 11.2 mph 21 mph 40% 0 in
12:59 66 °F 40.8 °F 29.9 in ONO 11.4 mph 23 mph 39.8% 0 in
13:04 66.2 °F 41.2 °F 29.9 in ONO 12.3 mph 23 mph 40% 0 in
13:09 66.4 °F 41.2 °F 29.9 in ONO 12.5 mph 21.3 mph 39.8% 0 in
13:14 66.6 °F 40.8 °F 29.9 in ONO 10.6 mph 21 mph 39% 0 in
13:19 66.6 °F 40.6 °F 29.9 in Oeste 10.2 mph 19 mph 38.9% 0 in
13:24 66.7 °F 40.6 °F 29.9 in Oeste 11 mph 21.3 mph 38.6% 0 in
13:29 66.7 °F 40.3 °F 29.9 in Oeste 11.2 mph 21 mph 38% 0 in
13:34 66.9 °F 40.5 °F 29.9 in Oeste 11.7 mph 18 mph 38% 0 in
13:39 67.1 °F 40.6 °F 29.9 in ONO 11.8 mph 16 mph 38% 0 in
13:44 67.3 °F 40.8 °F 29.9 in Oeste 9.7 mph 15 mph 38% 0 in
13:49 67.3 °F 40.8 °F 29.9 in Oeste 9.2 mph 13.8 mph 38% 0 in
13:54 67.3 °F 40.6 °F 29.9 in Oeste 7.7 mph 16.3 mph 37.8% 0 in
13:59 67.3 °F 40.6 °F 29.9 in Oeste 7.4 mph 16 mph 37.8% 0 in
14:04 67.6 °F 40.8 °F 29.9 in Oeste 6.6 mph 15 mph 37.6% 0 in
14:09 67.8 °F 40.6 °F 29.9 in Oeste 6.4 mph 16.1 mph 37.1% 0 in
14:14 67.8 °F 40.8 °F 29.9 in ONO 6.4 mph 16 mph 37.3% 0 in
14:19 68 °F 40.8 °F 29.9 in ONO 6.4 mph 11.5 mph 37.2% 0 in
14:24 68.2 °F 40.8 °F 29.9 in NO 6.4 mph 15 mph 37% 0 in
14:29 68.2 °F 40.8 °F 29.9 in NO 6.4 mph 16.3 mph 37% 0 in
14:34 68.4 °F 41 °F 29.9 in ONO 7.8 mph 16 mph 36.9% 0 in
14:39 68.5 °F 40.8 °F 29.9 in Oeste 8.1 mph 13 mph 36.4% 0 in
14:44 68.5 °F 40.3 °F 29.9 in Oeste 5.8 mph 12.7 mph 35.8% 0 in
14:49 68.7 °F 40.1 °F 29.9 in ONO 5.2 mph 14 mph 35.2% 0 in
14:54 68.7 °F 39.2 °F 29.9 in Oeste 8 mph 14 mph 34.1% 0 in
14:59 68.7 °F 39.4 °F 29.9 in ONO 8.7 mph 13 mph 34.2% 0 in
15:04 68.9 °F 39.4 °F 29.9 in ONO 7.6 mph 17.3 mph 34% 0 in
15:09 68.9 °F 38.7 °F 29.9 in Oeste 7.4 mph 17 mph 33.2% 0 in
15:14 69.1 °F 39.2 °F 29.9 in ONO 8.3 mph 18.4 mph 33.5% 0 in
15:19 69.1 °F 37.9 °F 29.9 in ONO 8.5 mph 20.7 mph 32.1% 0 in
15:24 68.9 °F 37.9 °F 29.9 in ONO 10.7 mph 21 mph 32.1% 0 in
15:29 68.9 °F 38.7 °F 29.9 in ONO 11.2 mph 16.3 mph 33% 0 in
15:34 68.9 °F 38.7 °F 29.9 in ONO 9.6 mph 16 mph 33% 0 in
15:39 69.1 °F 38.8 °F 29.9 in ONO 9.2 mph 21.9 mph 33% 0 in
15:44 69.1 °F 38.7 °F 29.9 in ONO 9.8 mph 22 mph 33% 0 in
15:49 68.7 °F 38.3 °F 29.9 in ONO 10 mph 20 mph 32.9% 0 in
15:54 68.5 °F 38.5 °F 29.9 in Oeste 11.1 mph 18 mph 33% 0 in
15:59 68.7 °F 38.3 °F 29.9 in ONO 11.4 mph 16.1 mph 33% 0 in
16:04 68.7 °F 39 °F 29.9 in ONO 9.1 mph 16 mph 33.8% 0 in
16:09 68.7 °F 39 °F 29.9 in Oeste 8.7 mph 15 mph 33.8% 0 in
16:14 68.7 °F 38.8 °F 29.9 in Oeste 8.2 mph 18.4 mph 33.6% 0 in
16:19 68.7 °F 39.2 °F 29.9 in Oeste 8.1 mph 18 mph 34% 0 in
16:24 68.5 °F 38.8 °F 29.9 in ONO 9.6 mph 17.5 mph 33.9% 0 in
16:29 68.4 °F 38.8 °F 29.9 in ONO 10 mph 17.3 mph 34% 0 in
16:34 68.4 °F 38.8 °F 29.9 in ONO 9.8 mph 16 mph 34% 0 in
16:39 68.4 °F 39 °F 29.9 in ONO 9.7 mph 19 mph 34% 0 in
16:44 68.4 °F 38.8 °F 29.9 in ONO 8.9 mph 19 mph 34% 0 in
16:49 68.2 °F 38.8 °F 29.9 in ONO 8.7 mph 16.1 mph 34.1% 0 in
16:54 68 °F 39 °F 29.9 in ONO 9.1 mph 16.1 mph 34.7% 0 in
16:59 67.8 °F 39.2 °F 29.9 in ONO 9.2 mph 16 mph 35% 0 in
17:04 67.8 °F 39.2 °F 29.9 in NO 8.3 mph 15 mph 35% 0 in
17:09 67.8 °F 39.2 °F 29.9 in ONO 8.1 mph 15 mph 35.1% 0 in
17:14 67.8 °F 39.4 °F 29.9 in Oeste 7.1 mph 14 mph 35.3% 0 in
17:19 67.8 °F 39.7 °F 29.9 in ONO 6.9 mph 11 mph 35.9% 0 in
17:24 67.6 °F 39.7 °F 29.9 in ONO 5.7 mph 12.7 mph 36% 0 in
17:29 67.6 °F 39.7 °F 29.9 in ONO 5.4 mph 15.9 mph 36% 0 in
17:34 67.5 °F 39.9 °F 29.9 in ONO 7.1 mph 16.1 mph 36.4% 0 in
17:39 67.3 °F 40.1 °F 29.9 in Oeste 7.6 mph 16 mph 37% 0 in
17:44 67.1 °F 39.9 °F 29.9 in Oeste 6.6 mph 12 mph 37% 0 in
17:49 66.9 °F 39.9 °F 29.9 in Oeste 6.4 mph 12 mph 37.1% 0 in
17:54 66.7 °F 40.3 °F 29.9 in Oeste 6 mph 8 mph 38% 0 in
17:59 66.6 °F 40.1 °F 29.9 in Oeste 5.9 mph 7 mph 38.1% 0 in
18:04 66.4 °F 40.3 °F 29.9 in Oeste 4.3 mph 11.5 mph 38.3% 0 in
18:09 66 °F 40.5 °F 29.9 in Oeste 4 mph 12 mph 39% 0 in
18:14 65.8 °F 40.3 °F 29.9 in Oeste 5.2 mph 10 mph 39% 0 in
18:19 65.8 °F 40.1 °F 29.9 in ONO 5.4 mph 10.4 mph 38.9% 0 in
18:24 65.8 °F 40.1 °F 29.9 in Oeste 5.2 mph 10 mph 38.9% 0 in
18:29 65.7 °F 40.1 °F 29.9 in Oeste 5.2 mph 6 mph 39% 0 in
18:34 65.5 °F 40.3 °F 29.9 in Oeste 4.2 mph 6.9 mph 39.6% 0 in
18:39 65.3 °F 40.3 °F 29.9 in OSO 4 mph 8.1 mph 39.9% 0 in
18:44 65.1 °F 40.1 °F 29.9 in Oeste 4 mph 8 mph 40% 0 in
18:49 64.9 °F 39.9 °F 29.9 in Oeste 4 mph 7 mph 40% 0 in
18:54 64.8 °F 39.9 °F 29.9 in OSO 4.2 mph 8.7 mph 39.9% 0 in
18:59 64.8 °F 39.7 °F 29.9 in OSO 4.3 mph 9.2 mph 39.8% 0 in
19:04 64.8 °F 39.9 °F 29.9 in OSO 4.7 mph 8 mph 40% 0 in
19:09 64.6 °F 39.6 °F 29.9 in OSO 4.7 mph 9.2 mph 39.9% 0 in
19:14 64.6 °F 39.4 °F 29.9 in OSO 4.2 mph 10.4 mph 39.6% 0 in
19:19 64.6 °F 39 °F 29.9 in SO 4 mph 10 mph 39% 0 in
19:24 64.6 °F 39 °F 29.9 in SO 4.5 mph 9.2 mph 39% 0 in
19:29 64.6 °F 39 °F 29.9 in OSO 4.7 mph 9.2 mph 39.2% 0 in
19:34 64.2 °F 39.4 °F 29.9 in SO 5.3 mph 10.7 mph 40% 0 in
19:39 64 °F 39.7 °F 29.9 in SSO 5.4 mph 11 mph 41% 0 in
19:44 63.9 °F 39.7 °F 29.9 in SO 6 mph 9 mph 41% 0 in
19:49 63.9 °F 40.3 °F 29.9 in SO 6.2 mph 8.5 mph 42% 0 in
19:54 63.7 °F 40.1 °F 29.9 in SSO 5 mph 9 mph 42.2% 0 in
19:59 63.1 °F 40.3 °F 29.9 in SSO 4.7 mph 9.7 mph 43% 0 in
20:04 63 °F 40.5 °F 29.9 in SSO 5.3 mph 10 mph 43.6% 0 in
20:09 62.6 °F 40.5 °F 29.9 in SSO 5.4 mph 9 mph 44% 0 in
20:14 62.4 °F 40.3 °F 29.9 in SSO 5.8 mph 8.1 mph 44% 0 in
20:19 62.2 °F 40.3 °F 29.9 in SSO 5.9 mph 8.5 mph 44.3% 0 in
20:24 62.2 °F 40.5 °F 29.9 in SSO 4.9 mph 9 mph 44.9% 0 in
20:29 62.1 °F 40.5 °F 29.9 in SSO 4.7 mph 7 mph 45% 0 in
20:34 61.9 °F 40.3 °F 29.9 in SSO 4.7 mph 8.1 mph 45% 0 in
20:39 61.9 °F 40.3 °F 29.9 in SSO 4.7 mph 8.1 mph 45% 0 in
20:44 61.7 °F 40.1 °F 29.9 in SSO 5.1 mph 8 mph 45% 0 in
20:49 61.5 °F 39.9 °F 29.9 in SO 5.2 mph 8.5 mph 45% 0 in
20:54 61.5 °F 39.9 °F 29.9 in SO 5.3 mph 9.2 mph 45% 0 in
20:59 61.5 °F 39.9 °F 29.9 in SO 5.4 mph 9 mph 45% 0 in
21:04 61.5 °F 39.9 °F 29.9 in SO 5.4 mph 9 mph 45% 0 in
21:09 61.3 °F 39.7 °F 29.9 in SO 5.4 mph 9.2 mph 45% 0 in
21:14 61.3 °F 39.7 °F 29.9 in SO 5.4 mph 9.7 mph 45% 0 in
21:19 61.2 °F 40.1 °F 29.9 in SO 5.4 mph 10 mph 45.8% 0 in
21:24 61 °F 39.9 °F 29.9 in SSO 4.8 mph 8.1 mph 46% 0 in
21:29 61 °F 39.9 °F 29.9 in SSO 4.7 mph 8.1 mph 45.9% 0 in
21:34 61 °F 39.9 °F 29.9 in Sur 4.7 mph 8.1 mph 45.9% 0 in
21:39 61 °F 39.9 °F 29.9 in Sur 4.7 mph 8 mph 46% 0 in
21:44 60.6 °F 40.3 °F 29.9 in SE 4.4 mph 7 mph 46.8% 0 in
21:49 60.4 °F 40.6 °F 29.9 in Oeste 4.3 mph 5.2 mph 48.1% 0 in
21:54 59.5 °F 40.8 °F 29.9 in North 3.2 mph 5 mph 49.8% 0 in
21:59 59 °F 40.6 °F 29.9 in NNO 2.9 mph 5 mph 50.7% 0 in
22:04 58.6 °F 40.6 °F 29.9 in NO 2.1 mph 3.6 mph 51% 0 in
22:09 58.6 °F 40.5 °F 29.9 in Oeste 2 mph 4 mph 50.9% 0 in
22:14 58.8 °F 40.3 °F 29.9 in OSO 2 mph 6.9 mph 50.2% 0 in
22:19 59.2 °F 40.5 °F 29.9 in Oeste 2 mph 13.7 mph 49.8% 0 in
22:24 59.4 °F 40.3 °F 29.9 in OSO 4.2 mph 14 mph 49% 0 in
22:29 59.4 °F 40.1 °F 29.9 in OSO 4.7 mph 14 mph 48.6% 0 in
22:34 59.5 °F 39.9 °F 29.9 in OSO 5.7 mph 10 mph 48% 0 in
22:39 59.7 °F 39.7 °F 29.9 in OSO 5.9 mph 11.5 mph 47.3% 0 in
22:44 60.1 °F 39.7 °F 29.9 in SO 5.9 mph 12 mph 47% 0 in
22:49 59.9 °F 39.9 °F 29.9 in SO 5.9 mph 8 mph 47.6% 0 in
22:54 59.9 °F 40.1 °F 29.9 in Sur 4.4 mph 7 mph 48% 0 in
22:59 59.7 °F 40.1 °F 29.9 in SSE 4 mph 6 mph 48% 0 in
23:04 59.5 °F 40.1 °F 29.9 in SE 3.7 mph 6.4 mph 48.4% 0 in
23:09 59.2 °F 40.3 °F 29.9 in SSE 3.6 mph 8.1 mph 49.4% 0 in
23:14 58.6 °F 40.1 °F 29.9 in SSE 4.5 mph 8 mph 50% 0 in
23:19 58.5 °F 40.3 °F 29.9 in SSO 4.7 mph 7 mph 50.8% 0 in
23:24 58.3 °F 40.3 °F 29.9 in SSO 3.8 mph 6 mph 51% 0 in
23:29 58.3 °F 40.3 °F 29.9 in SSO 3.6 mph 6 mph 51% 0 in
23:34 58.5 °F 40.3 °F 29.9 in SO 3.9 mph 6.2 mph 51% 0 in
23:39 58.5 °F 40.5 °F 29.9 in SSO 4 mph 8.5 mph 51% 0 in
23:44 58.5 °F 40.5 °F 29.9 in SO 4.2 mph 9 mph 51% 0 in
23:49 58.5 °F 40.5 °F 29.9 in SO 4.3 mph 5 mph 51% 0 in
23:54 58.3 °F 40.3 °F 29.9 in SSO 3.2 mph 5.9 mph 51% 0 in
23:59 58.3 °F 40.3 °F 29.9 in Sur 2.9 mph 6.2 mph 51% 0 in
Murcia-Puente Tocinos, España
Compliments of Weather Underground - 2.75 mb

La estación de MeteoMurcia.com, publica sus datos en los siguientes proyectos:

Weather Underground PWS IMURCIAP2 Meteoclimatic www.awekas.at

W3Counter
Web Analytics